sensor_id;sensor_type;location;lat;lon;timestamp;temperature;humidity
53711;DHT22;39605;52.704;6.752;2022-12-18T00:01:19;-2.60;99.90
53711;DHT22;39605;52.704;6.752;2022-12-18T00:03:46;-2.40;99.90
53711;DHT22;39605;52.704;6.752;2022-12-18T00:06:12;-2.50;99.90
53711;DHT22;39605;52.704;6.752;2022-12-18T00:08:40;-2.20;99.90
53711;DHT22;39605;52.704;6.752;2022-12-18T00:11:07;-2.70;99.90
53711;DHT22;39605;52.704;6.752;2022-12-18T00:13:33;-2.70;99.90
53711;DHT22;39605;52.704;6.752;2022-12-18T00:16:10;-2.70;99.90
53711;DHT22;39605;52.704;6.752;2022-12-18T00:18:36;-2.70;99.90
53711;DHT22;39605;52.704;6.752;2022-12-18T00:21:05;-2.40;99.90
53711;DHT22;39605;52.704;6.752;2022-12-18T00:23:38;-2.70;99.90
53711;DHT22;39605;52.704;6.752;2022-12-18T00:26:07;-2.80;99.90
53711;DHT22;39605;52.704;6.752;2022-12-18T00:28:36;-2.80;99.90
53711;DHT22;39605;52.704;6.752;2022-12-18T00:31:07;-2.90;99.90
53711;DHT22;39605;52.704;6.752;2022-12-18T00:33:34;-2.90;99.90
53711;DHT22;39605;52.704;6.752;2022-12-18T00:36:09;-3.00;99.90
53711;DHT22;39605;52.704;6.752;2022-12-18T00:38:36;-3.00;92.20
53711;DHT22;39605;52.704;6.752;2022-12-18T00:41:03;-3.10;92.00
53711;DHT22;39605;52.704;6.752;2022-12-18T00:43:29;-3.10;91.90
53711;DHT22;39605;52.704;6.752;2022-12-18T00:45:55;-3.20;91.70
53711;DHT22;39605;52.704;6.752;2022-12-18T00:48:21;-2.90;91.80
53711;DHT22;39605;52.704;6.752;2022-12-18T00:50:48;-3.10;91.70
53711;DHT22;39605;52.704;6.752;2022-12-18T00:53:15;-3.30;91.80
53711;DHT22;39605;52.704;6.752;2022-12-18T00:55:43;-3.30;91.80
53711;DHT22;39605;52.704;6.752;2022-12-18T00:58:10;-3.30;91.90
53711;DHT22;39605;52.704;6.752;2022-12-18T01:00:37;-3.00;91.80
53711;DHT22;39605;52.704;6.752;2022-12-18T01:03:04;-3.40;91.70
53711;DHT22;39605;52.704;6.752;2022-12-18T01:05:30;-3.50;91.50
53711;DHT22;39605;52.704;6.752;2022-12-18T01:07:56;-3.40;91.70
53711;DHT22;39605;52.704;6.752;2022-12-18T01:10:23;-3.50;91.70
53711;DHT22;39605;52.704;6.752;2022-12-18T01:12:48;-3.40;92.00
53711;DHT22;39605;52.704;6.752;2022-12-18T01:15:15;-3.60;92.00
53711;DHT22;39605;52.704;6.752;2022-12-18T01:17:41;-3.60;92.00
53711;DHT22;39605;52.704;6.752;2022-12-18T01:20:07;-3.60;92.10
53711;DHT22;39605;52.704;6.752;2022-12-18T01:22:34;-3.60;91.80
53711;DHT22;39605;52.704;6.752;2022-12-18T01:25:00;-3.60;91.50
53711;DHT22;39605;52.704;6.752;2022-12-18T01:27:29;-3.60;91.40
53711;DHT22;39605;52.704;6.752;2022-12-18T01:29:55;-3.70;91.30
53711;DHT22;39605;52.704;6.752;2022-12-18T01:32:23;-3.70;90.90
53711;DHT22;39605;52.704;6.752;2022-12-18T01:34:50;-3.30;90.90
53711;DHT22;39605;52.704;6.752;2022-12-18T01:37:16;-3.80;90.60
53711;DHT22;39605;52.704;6.752;2022-12-18T01:39:41;-3.80;90.60
53711;DHT22;39605;52.704;6.752;2022-12-18T01:42:15;-3.80;90.50
53711;DHT22;39605;52.704;6.752;2022-12-18T01:47:41;-3.80;90.10
53711;DHT22;39605;52.704;6.752;2022-12-18T01:50:25;-3.80;89.20
53711;DHT22;39605;52.704;6.752;2022-12-18T01:53:05;-3.80;88.60
53711;DHT22;39605;52.704;6.752;2022-12-18T01:55:37;-3.90;87.70
53711;DHT22;39605;52.704;6.752;2022-12-18T01:58:06;-3.90;87.50
53711;DHT22;39605;52.704;6.752;2022-12-18T02:00:31;-4.00;88.10
53711;DHT22;39605;52.704;6.752;2022-12-18T02:02:57;-4.00;87.80
53711;DHT22;39605;52.704;6.752;2022-12-18T02:08:21;-4.20;85.60
53711;DHT22;39605;52.704;6.752;2022-12-18T02:16:47;-4.30;86.70
53711;DHT22;39605;52.704;6.752;2022-12-18T02:22:29;-4.20;86.60
53711;DHT22;39605;52.704;6.752;2022-12-18T02:28:02;-4.30;84.50
53711;DHT22;39605;52.704;6.752;2022-12-18T02:30:31;-4.30;83.80
53711;DHT22;39605;52.704;6.752;2022-12-18T02:32:59;-4.40;82.70
53711;DHT22;39605;52.704;6.752;2022-12-18T02:35:28;-4.50;81.40
53711;DHT22;39605;52.704;6.752;2022-12-18T02:37:55;-4.50;80.20
53711;DHT22;39605;52.704;6.752;2022-12-18T02:40:24;-4.40;79.10
53711;DHT22;39605;52.704;6.752;2022-12-18T02:42:51;-4.60;78.80
53711;DHT22;39605;52.704;6.752;2022-12-18T02:45:17;-4.60;77.50
53711;DHT22;39605;52.704;6.752;2022-12-18T02:47:46;-4.70;78.40
53711;DHT22;39605;52.704;6.752;2022-12-18T02:50:22;-4.60;78.30
53711;DHT22;39605;52.704;6.752;2022-12-18T03:03:57;-5.00;76.20
53711;DHT22;39605;52.704;6.752;2022-12-18T03:06:28;-5.00;76.60
53711;DHT22;39605;52.704;6.752;2022-12-18T03:08:58;-5.00;76.20
53711;DHT22;39605;52.704;6.752;2022-12-18T03:11:26;-5.00;75.20
53711;DHT22;39605;52.704;6.752;2022-12-18T03:14:15;-5.00;75.00
53711;DHT22;39605;52.704;6.752;2022-12-18T03:16:42;-5.00;76.10
53711;DHT22;39605;52.704;6.752;2022-12-18T03:19:13;-4.90;75.80
53711;DHT22;39605;52.704;6.752;2022-12-18T03:21:49;-5.00;75.20
53711;DHT22;39605;52.704;6.752;2022-12-18T03:24:17;-5.00;73.80
53711;DHT22;39605;52.704;6.752;2022-12-18T03:26:47;-4.60;73.70
53711;DHT22;39605;52.704;6.752;2022-12-18T03:29:18;-5.00;74.10
53711;DHT22;39605;52.704;6.752;2022-12-18T03:31:53;-5.00;74.10
53711;DHT22;39605;52.704;6.752;2022-12-18T03:34:24;-5.10;74.10
53711;DHT22;39605;52.704;6.752;2022-12-18T03:36:52;-5.10;74.10
53711;DHT22;39605;52.704;6.752;2022-12-18T03:39:19;-5.10;72.50
53711;DHT22;39605;52.704;6.752;2022-12-18T03:41:52;-5.10;72.50
53711;DHT22;39605;52.704;6.752;2022-12-18T03:44:36;-5.20;70.80
53711;DHT22;39605;52.704;6.752;2022-12-18T03:47:14;-5.20;71.00
53711;DHT22;39605;52.704;6.752;2022-12-18T03:50:18;-5.20;71.80
53711;DHT22;39605;52.704;6.752;2022-12-18T03:55:09;-5.30;67.90
53711;DHT22;39605;52.704;6.752;2022-12-18T03:57:35;-5.30;67.80
53711;DHT22;39605;52.704;6.752;2022-12-18T04:00:12;-5.30;68.50
53711;DHT22;39605;52.704;6.752;2022-12-18T04:02:43;-5.30;67.20
53711;DHT22;39605;52.704;6.752;2022-12-18T04:05:10;-5.30;67.00
53711;DHT22;39605;52.704;6.752;2022-12-18T04:07:37;-5.30;67.20
53711;DHT22;39605;52.704;6.752;2022-12-18T04:10:06;-5.30;67.90
53711;DHT22;39605;52.704;6.752;2022-12-18T04:12:32;-5.30;68.80
53711;DHT22;39605;52.704;6.752;2022-12-18T04:14:57;-5.30;67.70
53711;DHT22;39605;52.704;6.752;2022-12-18T04:17:23;-5.30;66.40
53711;DHT22;39605;52.704;6.752;2022-12-18T04:19:49;-5.40;64.50
53711;DHT22;39605;52.704;6.752;2022-12-18T04:22:15;-5.40;64.10
53711;DHT22;39605;52.704;6.752;2022-12-18T04:24:41;-5.40;63.50
53711;DHT22;39605;52.704;6.752;2022-12-18T04:27:06;-5.50;61.70
53711;DHT22;39605;52.704;6.752;2022-12-18T04:29:32;-5.50;62.60
53711;DHT22;39605;52.704;6.752;2022-12-18T04:31:58;-5.40;63.10
53711;DHT22;39605;52.704;6.752;2022-12-18T04:34:24;-5.40;65.40
53711;DHT22;39605;52.704;6.752;2022-12-18T04:36:49;-5.30;66.20
53711;DHT22;39605;52.704;6.752;2022-12-18T04:39:15;-5.30;65.30
53711;DHT22;39605;52.704;6.752;2022-12-18T04:41:41;-5.30;65.40
53711;DHT22;39605;52.704;6.752;2022-12-18T04:44:07;-5.30;65.20
53711;DHT22;39605;52.704;6.752;2022-12-18T04:46:32;-5.30;64.40
53711;DHT22;39605;52.704;6.752;2022-12-18T04:48:58;-5.30;63.80
53711;DHT22;39605;52.704;6.752;2022-12-18T04:51:24;-5.30;63.80
53711;DHT22;39605;52.704;6.752;2022-12-18T04:53:49;-5.30;61.90
53711;DHT22;39605;52.704;6.752;2022-12-18T04:56:15;-5.30;61.40
53711;DHT22;39605;52.704;6.752;2022-12-18T04:58:43;-5.40;61.20
53711;DHT22;39605;52.704;6.752;2022-12-18T05:01:09;-5.50;58.10
53711;DHT22;39605;52.704;6.752;2022-12-18T05:03:36;-5.50;58.00
53711;DHT22;39605;52.704;6.752;2022-12-18T05:06:02;-5.50;58.50
53711;DHT22;39605;52.704;6.752;2022-12-18T05:08:31;-5.50;58.00
53711;DHT22;39605;52.704;6.752;2022-12-18T05:11:06;-5.60;55.30
53711;DHT22;39605;52.704;6.752;2022-12-18T05:13:33;-5.60;54.20
53711;DHT22;39605;52.704;6.752;2022-12-18T05:15:59;-5.60;54.00
53711;DHT22;39605;52.704;6.752;2022-12-18T05:18:25;-5.70;54.00
53711;DHT22;39605;52.704;6.752;2022-12-18T05:20:52;-5.60;55.30
53711;DHT22;39605;52.704;6.752;2022-12-18T05:23:19;-5.60;54.60
53711;DHT22;39605;52.704;6.752;2022-12-18T05:25:53;-5.60;53.80
53711;DHT22;39605;52.704;6.752;2022-12-18T05:28:19;-5.70;53.40
53711;DHT22;39605;52.704;6.752;2022-12-18T05:30:49;-5.70;55.10
53711;DHT22;39605;52.704;6.752;2022-12-18T05:33:16;-5.70;53.60
53711;DHT22;39605;52.704;6.752;2022-12-18T05:35:42;-5.70;56.40
53711;DHT22;39605;52.704;6.752;2022-12-18T05:38:08;-5.70;55.50
53711;DHT22;39605;52.704;6.752;2022-12-18T05:40:33;-5.70;49.70
53711;DHT22;39605;52.704;6.752;2022-12-18T05:42:59;-5.70;52.60
53711;DHT22;39605;52.704;6.752;2022-12-18T05:45:25;-5.80;50.50
53711;DHT22;39605;52.704;6.752;2022-12-18T05:47:50;-5.80;52.60
53711;DHT22;39605;52.704;6.752;2022-12-18T05:50:16;-5.80;51.80
53711;DHT22;39605;52.704;6.752;2022-12-18T05:52:42;-5.80;50.60
53711;DHT22;39605;52.704;6.752;2022-12-18T05:55:08;-5.70;52.90
53711;DHT22;39605;52.704;6.752;2022-12-18T05:57:33;-5.90;53.40
53711;DHT22;39605;52.704;6.752;2022-12-18T05:59:59;-5.80;53.50
53711;DHT22;39605;52.704;6.752;2022-12-18T06:02:25;-5.80;51.60
53711;DHT22;39605;52.704;6.752;2022-12-18T06:04:50;-5.90;49.30
53711;DHT22;39605;52.704;6.752;2022-12-18T06:07:16;-6.00;46.00
53711;DHT22;39605;52.704;6.752;2022-12-18T06:09:42;-5.90;45.00
53711;DHT22;39605;52.704;6.752;2022-12-18T06:12:08;-6.00;45.10
53711;DHT22;39605;52.704;6.752;2022-12-18T06:14:34;-5.90;48.00
53711;DHT22;39605;52.704;6.752;2022-12-18T06:16:59;-5.90;47.40
53711;DHT22;39605;52.704;6.752;2022-12-18T06:19:28;-5.90;48.70
53711;DHT22;39605;52.704;6.752;2022-12-18T06:21:56;-5.90;51.70
53711;DHT22;39605;52.704;6.752;2022-12-18T06:24:24;-5.90;54.80
53711;DHT22;39605;52.704;6.752;2022-12-18T06:26:50;-5.80;52.90
53711;DHT22;39605;52.704;6.752;2022-12-18T06:29:15;-5.00;52.10
53711;DHT22;39605;52.704;6.752;2022-12-18T06:31:41;-5.80;49.30
53711;DHT22;39605;52.704;6.752;2022-12-18T06:34:07;-5.80;50.30
53711;DHT22;39605;52.704;6.752;2022-12-18T06:36:32;-5.80;48.70
53711;DHT22;39605;52.704;6.752;2022-12-18T06:38:59;-5.80;49.10
53711;DHT22;39605;52.704;6.752;2022-12-18T06:41:24;-5.80;48.40
53711;DHT22;39605;52.704;6.752;2022-12-18T06:43:50;-5.80;47.30
53711;DHT22;39605;52.704;6.752;2022-12-18T06:46:16;-5.80;48.10
53711;DHT22;39605;52.704;6.752;2022-12-18T06:48:42;-5.80;46.40
53711;DHT22;39605;52.704;6.752;2022-12-18T06:51:08;-5.80;46.70
53711;DHT22;39605;52.704;6.752;2022-12-18T06:53:34;-5.70;47.20
53711;DHT22;39605;52.704;6.752;2022-12-18T06:56:03;-5.70;45.50
53711;DHT22;39605;52.704;6.752;2022-12-18T06:58:30;-5.70;44.50
53711;DHT22;39605;52.704;6.752;2022-12-18T07:01:06;-5.80;42.70
53711;DHT22;39605;52.704;6.752;2022-12-18T07:03:33;-5.80;43.70
53711;DHT22;39605;52.704;6.752;2022-12-18T07:05:59;-5.70;44.60
53711;DHT22;39605;52.704;6.752;2022-12-18T07:08:25;-5.70;42.80
53711;DHT22;39605;52.704;6.752;2022-12-18T07:10:50;-5.80;42.30
53711;DHT22;39605;52.704;6.752;2022-12-18T07:13:16;-5.80;41.90
53711;DHT22;39605;52.704;6.752;2022-12-18T07:15:43;-5.90;40.20
53711;DHT22;39605;52.704;6.752;2022-12-18T07:18:09;-5.80;40.70
53711;DHT22;39605;52.704;6.752;2022-12-18T07:20:35;-5.90;41.50
53711;DHT22;39605;52.704;6.752;2022-12-18T07:23:04;-5.90;41.30
53711;DHT22;39605;52.704;6.752;2022-12-18T07:25:36;-5.90;40.90
53711;DHT22;39605;52.704;6.752;2022-12-18T07:28:03;-5.90;40.90
53711;DHT22;39605;52.704;6.752;2022-12-18T07:30:28;-5.80;42.30
53711;DHT22;39605;52.704;6.752;2022-12-18T07:32:54;-5.80;40.00
53711;DHT22;39605;52.704;6.752;2022-12-18T07:35:20;-5.80;39.60
53711;DHT22;39605;52.704;6.752;2022-12-18T07:37:46;-5.90;39.40
53711;DHT22;39605;52.704;6.752;2022-12-18T07:40:12;-5.80;38.90
53711;DHT22;39605;52.704;6.752;2022-12-18T07:42:38;-5.80;37.60
53711;DHT22;39605;52.704;6.752;2022-12-18T07:45:04;-5.80;37.10
53711;DHT22;39605;52.704;6.752;2022-12-18T07:47:30;-5.80;36.10
53711;DHT22;39605;52.704;6.752;2022-12-18T07:49:55;-5.80;35.90
53711;DHT22;39605;52.704;6.752;2022-12-18T07:52:21;-5.80;35.50
53711;DHT22;39605;52.704;6.752;2022-12-18T07:54:49;-5.80;35.10
53711;DHT22;39605;52.704;6.752;2022-12-18T07:57:24;-5.70;33.90
53711;DHT22;39605;52.704;6.752;2022-12-18T07:59:49;-5.70;33.40
53711;DHT22;39605;52.704;6.752;2022-12-18T08:02:15;-5.70;32.30
53711;DHT22;39605;52.704;6.752;2022-12-18T08:04:40;-5.60;31.60
53711;DHT22;39605;52.704;6.752;2022-12-18T08:07:06;-5.60;29.70
53711;DHT22;39605;52.704;6.752;2022-12-18T08:09:32;-5.60;29.00
53711;DHT22;39605;52.704;6.752;2022-12-18T08:11:57;-5.60;28.10
53711;DHT22;39605;52.704;6.752;2022-12-18T08:14:23;-5.40;27.30
53711;DHT22;39605;52.704;6.752;2022-12-18T08:16:49;-5.50;27.30
53711;DHT22;39605;52.704;6.752;2022-12-18T08:19:15;-5.30;27.20
53711;DHT22;39605;52.704;6.752;2022-12-18T08:21:41;-5.40;25.50
53711;DHT22;39605;52.704;6.752;2022-12-18T08:24:08;-5.00;23.50
53711;DHT22;39605;52.704;6.752;2022-12-18T08:26:34;-5.30;22.80
53711;DHT22;39605;52.704;6.752;2022-12-18T08:29:00;-5.10;22.80
53711;DHT22;39605;52.704;6.752;2022-12-18T08:31:28;-5.10;23.00
53711;DHT22;39605;52.704;6.752;2022-12-18T08:33:54;-5.10;22.50
53711;DHT22;39605;52.704;6.752;2022-12-18T08:36:21;-5.00;19.60
53711;DHT22;39605;52.704;6.752;2022-12-18T08:38:47;-5.00;18.80
53711;DHT22;39605;52.704;6.752;2022-12-18T08:41:15;-4.90;17.50
53711;DHT22;39605;52.704;6.752;2022-12-18T08:43:41;-4.90;15.50
53711;DHT22;39605;52.704;6.752;2022-12-18T08:46:27;-4.90;13.00
53711;DHT22;39605;52.704;6.752;2022-12-18T08:48:54;-4.80;14.40
53711;DHT22;39605;52.704;6.752;2022-12-18T08:51:21;-4.70;16.90
53711;DHT22;39605;52.704;6.752;2022-12-18T08:53:47;-4.40;15.90
53711;DHT22;39605;52.704;6.752;2022-12-18T08:56:13;-4.00;19.00
53711;DHT22;39605;52.704;6.752;2022-12-18T08:58:40;-3.50;20.20
53711;DHT22;39605;52.704;6.752;2022-12-18T09:01:08;-3.10;1.00
53711;DHT22;39605;52.704;6.752;2022-12-18T09:03:37;-2.90;1.00
53711;DHT22;39605;52.704;6.752;2022-12-18T09:06:04;-2.80;1.00
53711;DHT22;39605;52.704;6.752;2022-12-18T09:08:29;-2.70;1.00
53711;DHT22;39605;52.704;6.752;2022-12-18T09:10:55;-2.60;1.00
53711;DHT22;39605;52.704;6.752;2022-12-18T09:13:21;-2.50;1.00
53711;DHT22;39605;52.704;6.752;2022-12-18T09:15:52;-2.30;1.00
53711;DHT22;39605;52.704;6.752;2022-12-18T09:18:20;-2.30;1.00
53711;DHT22;39605;52.704;6.752;2022-12-18T09:20:46;-2.40;1.00
53711;DHT22;39605;52.704;6.752;2022-12-18T09:23:12;-2.50;1.00
53711;DHT22;39605;52.704;6.752;2022-12-18T09:25:39;-2.60;1.00
53711;DHT22;39605;52.704;6.752;2022-12-18T09:28:13;-2.50;1.00
53711;DHT22;39605;52.704;6.752;2022-12-18T09:30:49;-2.10;1.00
53711;DHT22;39605;52.704;6.752;2022-12-18T09:33:16;-1.60;1.00
53711;DHT22;39605;52.704;6.752;2022-12-18T09:35:43;-1.30;1.00
53711;DHT22;39605;52.704;6.752;2022-12-18T09:38:16;-0.80;1.00
53711;DHT22;39605;52.704;6.752;2022-12-18T09:40:45;-0.40;1.00
53711;DHT22;39605;52.704;6.752;2022-12-18T09:43:19;0.00;1.00
53711;DHT22;39605;52.704;6.752;2022-12-18T09:45:51;0.10;99.90
53711;DHT22;39605;52.704;6.752;2022-12-18T09:48:40;0.10;99.90
53711;DHT22;39605;52.704;6.752;2022-12-18T09:51:23;-0.20;99.90
53711;DHT22;39605;52.704;6.752;2022-12-18T09:54:03;-0.40;99.90
53711;DHT22;39605;52.704;6.752;2022-12-18T09:56:35;-0.40;99.90
53711;DHT22;39605;52.704;6.752;2022-12-18T09:59:03;-0.40;99.90
53711;DHT22;39605;52.704;6.752;2022-12-18T10:01:31;-0.20;99.90
53711;DHT22;39605;52.704;6.752;2022-12-18T10:03:57;-0.20;99.90
53711;DHT22;39605;52.704;6.752;2022-12-18T10:06:58;-0.40;99.90
53711;DHT22;39605;52.704;6.752;2022-12-18T10:12:17;-0.60;99.90
53711;DHT22;39605;52.704;6.752;2022-12-18T10:17:50;-0.20;99.90
53711;DHT22;39605;52.704;6.752;2022-12-18T10:20:40;-0.30;99.90
53711;DHT22;39605;52.704;6.752;2022-12-18T10:23:47;-0.60;99.90
53711;DHT22;39605;52.704;6.752;2022-12-18T10:26:19;-0.70;99.90
53711;DHT22;39605;52.704;6.752;2022-12-18T10:28:53;-0.90;99.90
53711;DHT22;39605;52.704;6.752;2022-12-18T10:31:22;-0.90;99.90
53711;DHT22;39605;52.704;6.752;2022-12-18T10:33:48;-1.00;99.90
53711;DHT22;39605;52.704;6.752;2022-12-18T10:36:14;-1.10;99.90
53711;DHT22;39605;52.704;6.752;2022-12-18T10:38:40;-1.20;99.90
53711;DHT22;39605;52.704;6.752;2022-12-18T10:41:23;-1.20;99.90
53711;DHT22;39605;52.704;6.752;2022-12-18T10:44:23;-1.20;1.00
53711;DHT22;39605;52.704;6.752;2022-12-18T10:46:53;-1.30;1.00
53711;DHT22;39605;52.704;6.752;2022-12-18T10:49:30;-1.30;1.00
53711;DHT22;39605;52.704;6.752;2022-12-18T10:52:18;-1.30;1.00
53711;DHT22;39605;52.704;6.752;2022-12-18T10:54:55;-1.40;1.00
53711;DHT22;39605;52.704;6.752;2022-12-18T10:57:34;-1.40;1.00
53711;DHT22;39605;52.704;6.752;2022-12-18T11:00:29;-1.50;1.00
53711;DHT22;39605;52.704;6.752;2022-12-18T11:02:56;-1.40;1.00
53711;DHT22;39605;52.704;6.752;2022-12-18T11:05:30;-1.40;1.00
53711;DHT22;39605;52.704;6.752;2022-12-18T11:07:58;-1.40;1.00
53711;DHT22;39605;52.704;6.752;2022-12-18T11:10:32;-1.40;1.00
53711;DHT22;39605;52.704;6.752;2022-12-18T11:13:19;-1.40;1.00
53711;DHT22;39605;52.704;6.752;2022-12-18T11:15:46;-1.40;1.00
53711;DHT22;39605;52.704;6.752;2022-12-18T11:18:30;-1.40;1.00
53711;DHT22;39605;52.704;6.752;2022-12-18T11:21:10;-1.30;1.00
53711;DHT22;39605;52.704;6.752;2022-12-18T11:23:43;-1.30;1.00
53711;DHT22;39605;52.704;6.752;2022-12-18T11:26:10;-1.30;1.00
53711;DHT22;39605;52.704;6.752;2022-12-18T11:28:51;-1.20;1.00
53711;DHT22;39605;52.704;6.752;2022-12-18T11:31:26;-1.20;1.00
53711;DHT22;39605;52.704;6.752;2022-12-18T11:34:30;-1.10;1.00
53711;DHT22;39605;52.704;6.752;2022-12-18T11:36:59;-1.00;1.00
53711;DHT22;39605;52.704;6.752;2022-12-18T11:45:16;-0.90;1.00
53711;DHT22;39605;52.704;6.752;2022-12-18T11:53:19;-0.90;1.00
53711;DHT22;39605;52.704;6.752;2022-12-18T11:56:02;-0.90;1.00
53711;DHT22;39605;52.704;6.752;2022-12-18T12:01:42;-0.90;1.00
53711;DHT22;39605;52.704;6.752;2022-12-18T12:10:07;-0.80;1.00
53711;DHT22;39605;52.704;6.752;2022-12-18T12:26:38;-0.60;1.00
53711;DHT22;39605;52.704;6.752;2022-12-18T12:32:09;-0.60;1.00
53711;DHT22;39605;52.704;6.752;2022-12-18T12:34:47;-0.60;1.00
53711;DHT22;39605;52.704;6.752;2022-12-18T12:37:23;-0.60;1.00
53711;DHT22;39605;52.704;6.752;2022-12-18T12:39:53;-0.60;1.00
53711;DHT22;39605;52.704;6.752;2022-12-18T12:42:32;-0.60;1.00
53711;DHT22;39605;52.704;6.752;2022-12-18T12:45:23;-0.60;1.00
53711;DHT22;39605;52.704;6.752;2022-12-18T12:47:52;-0.60;1.00
53711;DHT22;39605;52.704;6.752;2022-12-18T12:50:20;-0.50;1.00
53711;DHT22;39605;52.704;6.752;2022-12-18T12:52:55;-0.40;1.00
53711;DHT22;39605;52.704;6.752;2022-12-18T12:55:28;-0.50;1.00
53711;DHT22;39605;52.704;6.752;2022-12-18T13:00:54;-0.40;1.00
53711;DHT22;39605;52.704;6.752;2022-12-18T13:05:54;-0.40;1.00
53711;DHT22;39605;52.704;6.752;2022-12-18T13:08:26;-0.30;1.00
53711;DHT22;39605;52.704;6.752;2022-12-18T13:10:53;-0.30;1.00
53711;DHT22;39605;52.704;6.752;2022-12-18T13:13:54;-0.30;1.00
53711;DHT22;39605;52.704;6.752;2022-12-18T13:16:22;-0.30;1.00
53711;DHT22;39605;52.704;6.752;2022-12-18T13:18:55;-0.20;1.00
53711;DHT22;39605;52.704;6.752;2022-12-18T13:21:32;-0.20;99.90
53711;DHT22;39605;52.704;6.752;2022-12-18T13:24:23;-0.20;99.90
53711;DHT22;39605;52.704;6.752;2022-12-18T13:26:49;-0.20;99.90
53711;DHT22;39605;52.704;6.752;2022-12-18T13:32:19;-0.10;99.90
53711;DHT22;39605;52.704;6.752;2022-12-18T13:34:45;-0.10;99.90
53711;DHT22;39605;52.704;6.752;2022-12-18T13:37:53;-0.10;99.90
53711;DHT22;39605;52.704;6.752;2022-12-18T13:48:26;0.00;99.90
53711;DHT22;39605;52.704;6.752;2022-12-18T13:51:11;0.00;99.90
53711;DHT22;39605;52.704;6.752;2022-12-18T13:53:50;0.10;99.90
53711;DHT22;39605;52.704;6.752;2022-12-18T13:56:18;-0.10;99.90
53711;DHT22;39605;52.704;6.752;2022-12-18T13:58:43;-0.10;99.90
53711;DHT22;39605;52.704;6.752;2022-12-18T14:01:22;-0.10;99.90
53711;DHT22;39605;52.704;6.752;2022-12-18T14:03:50;-0.20;99.90
53711;DHT22;39605;52.704;6.752;2022-12-18T14:06:17;-0.20;99.90
53711;DHT22;39605;52.704;6.752;2022-12-18T14:08:43;-0.20;99.90
53711;DHT22;39605;52.704;6.752;2022-12-18T14:11:20;-0.20;99.90
53711;DHT22;39605;52.704;6.752;2022-12-18T14:13:47;-0.30;99.90
53711;DHT22;39605;52.704;6.752;2022-12-18T14:16:15;-0.30;99.90
53711;DHT22;39605;52.704;6.752;2022-12-18T14:18:50;0.00;99.90
53711;DHT22;39605;52.704;6.752;2022-12-18T14:21:27;-0.40;99.90
53711;DHT22;39605;52.704;6.752;2022-12-18T14:24:17;-0.40;99.90
53711;DHT22;39605;52.704;6.752;2022-12-18T14:26:43;-0.50;99.90
53711;DHT22;39605;52.704;6.752;2022-12-18T14:29:25;-0.50;99.90
53711;DHT22;39605;52.704;6.752;2022-12-18T14:32:12;-0.50;1.00
53711;DHT22;39605;52.704;6.752;2022-12-18T14:34:39;-0.50;1.00
53711;DHT22;39605;52.704;6.752;2022-12-18T14:37:07;-0.50;1.00
53711;DHT22;39605;52.704;6.752;2022-12-18T14:39:34;-0.50;1.00
53711;DHT22;39605;52.704;6.752;2022-12-18T14:42:00;-0.50;1.00
53711;DHT22;39605;52.704;6.752;2022-12-18T14:44:26;-0.60;1.00
53711;DHT22;39605;52.704;6.752;2022-12-18T14:46:51;-0.60;1.00
53711;DHT22;39605;52.704;6.752;2022-12-18T14:49:34;-0.60;1.00
53711;DHT22;39605;52.704;6.752;2022-12-18T14:52:02;-0.60;1.00
53711;DHT22;39605;52.704;6.752;2022-12-18T14:54:29;-0.50;1.00
53711;DHT22;39605;52.704;6.752;2022-12-18T14:59:39;-0.70;1.00
53711;DHT22;39605;52.704;6.752;2022-12-18T15:04:45;-0.70;1.00
53711;DHT22;39605;52.704;6.752;2022-12-18T15:10:10;-0.70;1.00
53711;DHT22;39605;52.704;6.752;2022-12-18T15:12:45;-0.70;1.00
53711;DHT22;39605;52.704;6.752;2022-12-18T15:18:00;-0.80;1.00
53711;DHT22;39605;52.704;6.752;2022-12-18T15:20:26;-0.50;1.00
53711;DHT22;39605;52.704;6.752;2022-12-18T15:22:52;-0.70;1.00
53711;DHT22;39605;52.704;6.752;2022-12-18T15:25:32;-0.80;1.00
53711;DHT22;39605;52.704;6.752;2022-12-18T15:27:59;-0.80;1.00
53711;DHT22;39605;52.704;6.752;2022-12-18T15:30:25;-0.90;1.00
53711;DHT22;39605;52.704;6.752;2022-12-18T15:32:52;-0.90;1.00
53711;DHT22;39605;52.704;6.752;2022-12-18T15:35:27;-0.90;1.00
53711;DHT22;39605;52.704;6.752;2022-12-18T15:37:52;-0.60;1.00
53711;DHT22;39605;52.704;6.752;2022-12-18T15:40:23;-0.80;1.00
53711;DHT22;39605;52.704;6.752;2022-12-18T15:42:52;-0.90;1.00
53711;DHT22;39605;52.704;6.752;2022-12-18T15:45:37;-0.80;1.00
53711;DHT22;39605;52.704;6.752;2022-12-18T15:48:20;-0.90;1.00
53711;DHT22;39605;52.704;6.752;2022-12-18T15:50:46;-0.90;1.00
53711;DHT22;39605;52.704;6.752;2022-12-18T15:53:12;-0.90;1.00
53711;DHT22;39605;52.704;6.752;2022-12-18T15:55:38;-0.90;1.00
53711;DHT22;39605;52.704;6.752;2022-12-18T15:58:22;-0.90;1.00
53711;DHT22;39605;52.704;6.752;2022-12-18T16:00:48;-0.90;1.00
53711;DHT22;39605;52.704;6.752;2022-12-18T16:03:13;-0.90;1.00
53711;DHT22;39605;52.704;6.752;2022-12-18T16:05:39;-0.90;1.00
53711;DHT22;39605;52.704;6.752;2022-12-18T16:08:05;-0.90;1.00
53711;DHT22;39605;52.704;6.752;2022-12-18T16:10:30;-0.90;1.00
53711;DHT22;39605;52.704;6.752;2022-12-18T16:12:56;-0.80;1.00
53711;DHT22;39605;52.704;6.752;2022-12-18T16:15:22;-0.90;1.00
53711;DHT22;39605;52.704;6.752;2022-12-18T16:17:48;-0.80;1.00
53711;DHT22;39605;52.704;6.752;2022-12-18T16:20:15;-0.90;1.00
53711;DHT22;39605;52.704;6.752;2022-12-18T16:22:42;-0.90;1.00
53711;DHT22;39605;52.704;6.752;2022-12-18T16:25:21;-0.90;1.00
53711;DHT22;39605;52.704;6.752;2022-12-18T16:27:48;-0.90;1.00
53711;DHT22;39605;52.704;6.752;2022-12-18T16:30:27;-0.90;1.00
53711;DHT22;39605;52.704;6.752;2022-12-18T16:32:54;-0.90;1.00
53711;DHT22;39605;52.704;6.752;2022-12-18T16:35:22;0.30;1.00
53711;DHT22;39605;52.704;6.752;2022-12-18T16:37:48;-1.00;1.00
53711;DHT22;39605;52.704;6.752;2022-12-18T16:40:16;-0.80;1.00
53711;DHT22;39605;52.704;6.752;2022-12-18T16:42:45;-0.80;1.00
53711;DHT22;39605;52.704;6.752;2022-12-18T16:45:17;-0.10;1.00
53711;DHT22;39605;52.704;6.752;2022-12-18T16:47:43;-0.40;1.00
53711;DHT22;39605;52.704;6.752;2022-12-18T16:50:12;-0.80;1.00
53711;DHT22;39605;52.704;6.752;2022-12-18T16:52:39;-0.30;1.00
53711;DHT22;39605;52.704;6.752;2022-12-18T16:55:05;-0.30;1.00
53711;DHT22;39605;52.704;6.752;2022-12-18T16:57:31;-0.70;1.00
53711;DHT22;39605;52.704;6.752;2022-12-18T16:59:57;-0.70;1.00
53711;DHT22;39605;52.704;6.752;2022-12-18T17:02:25;-0.70;1.00
53711;DHT22;39605;52.704;6.752;2022-12-18T17:04:55;-0.40;1.00
53711;DHT22;39605;52.704;6.752;2022-12-18T17:07:23;-0.70;1.00
53711;DHT22;39605;52.704;6.752;2022-12-18T17:09:51;0.00;1.00
53711;DHT22;39605;52.704;6.752;2022-12-18T17:12:18;-0.70;1.00
53711;DHT22;39605;52.704;6.752;2022-12-18T17:14:47;-0.70;1.00
53711;DHT22;39605;52.704;6.752;2022-12-18T17:17:13;-0.10;1.00
53711;DHT22;39605;52.704;6.752;2022-12-18T17:19:39;-0.30;1.00
53711;DHT22;39605;52.704;6.752;2022-12-18T17:22:05;0.30;1.00
53711;DHT22;39605;52.704;6.752;2022-12-18T17:24:32;0.10;1.00
53711;DHT22;39605;52.704;6.752;2022-12-18T17:27:07;-0.60;1.00
53711;DHT22;39605;52.704;6.752;2022-12-18T17:29:33;-0.30;1.00
53711;DHT22;39605;52.704;6.752;2022-12-18T17:31:59;-0.10;1.00
53711;DHT22;39605;52.704;6.752;2022-12-18T17:34:25;-0.30;1.00
53711;DHT22;39605;52.704;6.752;2022-12-18T17:36:56;-0.60;1.00